Time;durP1;ratioP1;P1;durP2;ratioP2;P2;SDS_P1;SDS_P2;PMS_P1;PMS_P2;Temp;Humidity;BMP_temperature;BMP_pressure;BME280_temperature;BME280_humidity;BME280_pressure;Samples;Min_cycle;Max_cycle;Signal;HPM_P1;HPM_P2
2022/01/03 00:01:11;;;;;;;10.02;2.08;;;8.30;99.90;;;;;;4996682;28;20269;-73
2022/01/03 00:03:37;;;;;;;10.52;2.60;;;8.30;99.90;;;;;;4962286;28;20062;-70
2022/01/03 00:06:03;;;;;;;13.23;2.65;;;8.40;99.90;;;;;;4996703;28;20352;-72
2022/01/03 00:08:30;;;;;;;14.90;2.88;;;8.40;99.90;;;;;;4995821;28;20046;-71
2022/01/03 00:10:56;;;;;;;11.90;2.88;;;8.40;99.90;;;;;;5004416;28;20066;-73
2022/01/03 00:13:23;;;;;;;20.00;3.40;;;8.50;99.90;;;;;;4995462;28;20122;-72
2022/01/03 00:15:48;;;;;;;9.65;2.72;;;8.50;99.90;;;;;;4995795;28;20054;-71
2022/01/03 00:18:14;;;;;;;14.38;3.17;;;8.50;99.90;;;;;;4995731;28;20050;-71
2022/01/03 00:20:45;;;;;;;16.92;3.38;;;8.60;99.90;;;;;;4995502;28;20054;-72
2022/01/03 00:23:12;;;;;;;12.38;3.03;;;8.60;99.90;;;;;;4996419;28;20057;-72
2022/01/03 00:25:47;;;;;;;15.48;3.35;;;8.70;99.90;;;;;;4996318;28;20096;-72
2022/01/03 00:28:23;;;;;;;14.30;3.45;;;8.70;99.90;;;;;;4996117;28;20450;-73
2022/01/03 00:30:56;;;;;;;12.90;3.13;;;8.80;99.90;;;;;;4995276;28;20120;-71
2022/01/03 00:33:23;;;;;;;15.07;3.13;;;8.80;99.90;;;;;;4996144;28;20050;-74
2022/01/03 00:35:54;;;;;;;17.20;3.45;;;8.80;99.90;;;;;;4996416;28;20352;-73
2022/01/03 00:38:22;;;;;;;20.48;3.53;;;8.80;99.90;;;;;;4995678;28;20154;-71
2022/01/03 00:40:48;;;;;;;16.40;3.28;;;8.90;99.90;;;;;;5012805;28;20049;-72
2022/01/03 00:43:16;;;;;;;14.98;3.42;;;8.90;99.90;;;;;;5015953;28;20176;-71
2022/01/03 00:45:42;;;;;;;17.77;2.90;;;8.90;99.90;;;;;;5015659;28;20041;-72
2022/01/03 00:48:09;;;;;;;18.63;3.22;;;9.00;99.90;;;;;;5015470;28;20128;-72
2022/01/03 00:50:35;;;;;;;16.90;2.92;;;8.90;99.90;;;;;;5010898;28;20050;-71
2022/01/03 00:53:00;;;;;;;14.88;3.33;;;9.00;99.90;;;;;;5015365;28;20048;-71
2022/01/03 00:55:26;;;;;;;25.85;3.65;;;9.00;99.90;;;;;;4997985;28;20042;-71
2022/01/03 00:58:11;;;;;;;17.85;3.10;;;9.00;99.90;;;;;;4998434;28;20446;-72
2022/01/03 01:00:40;;;;;;;27.25;5.57;;;9.00;99.90;;;;;;5015278;28;20148;-71
2022/01/03 01:03:18;;;;;;;18.90;3.58;;;9.00;99.90;;;;;;5015356;28;20042;-72
2022/01/03 01:05:53;;;;;;;20.40;3.80;;;9.00;99.90;;;;;;5015129;28;20409;-73
2022/01/03 01:08:23;;;;;;;25.50;3.70;;;9.00;99.90;;;;;;4998678;28;20078;-74
2022/01/03 01:10:52;;;;;;;22.35;3.72;;;9.00;99.90;;;;;;4995715;28;20054;-71
2022/01/03 01:13:20;;;;;;;19.10;3.75;;;9.00;99.90;;;;;;4995646;28;20046;-73
2022/01/03 01:15:45;;;;;;;15.70;3.28;;;8.90;99.90;;;;;;4994707;28;20043;-70
2022/01/03 01:18:11;;;;;;;26.35;3.65;;;8.90;99.90;;;;;;4994447;28;20050;-72
2022/01/03 01:20:39;;;;;;;23.60;4.22;;;8.90;99.90;;;;;;5006297;28;20046;-72
2022/01/03 01:23:06;;;;;;;21.42;3.97;;;8.90;99.90;;;;;;5015336;28;20065;-71
2022/01/03 01:28:07;;;;;;;29.85;4.25;;;8.80;99.90;;;;;;5002375;28;20351;-72
2022/01/03 01:30:33;;;;;;;21.30;3.85;;;8.80;99.90;;;;;;5001582;28;20073;-72
2022/01/03 01:33:03;;;;;;;22.40;3.70;;;8.80;99.90;;;;;;5019280;28;20066;-71
2022/01/03 01:35:42;;;;;;;26.02;4.75;;;8.80;99.90;;;;;;5018799;28;20054;-71
2022/01/03 01:38:10;;;;;;;26.85;4.03;;;8.90;99.90;;;;;;5018483;28;20096;-72
2022/01/03 01:40:46;;;;;;;24.48;4.20;;;8.80;99.90;;;;;;5001963;28;20049;-72
2022/01/03 01:43:13;;;;;;;32.10;4.40;;;8.80;99.90;;;;;;5019003;28;20366;-72
2022/01/03 01:45:42;;;;;;;26.25;5.70;;;8.80;99.90;;;;;;5018580;28;20056;-71
2022/01/03 01:48:12;;;;;;;25.60;5.65;;;8.90;99.90;;;;;;5018718;28;20054;-73
2022/01/03 01:50:40;;;;;;;27.60;4.25;;;8.90;99.90;;;;;;5001684;28;20350;-72
2022/01/03 01:53:06;;;;;;;25.65;3.90;;;8.90;99.90;;;;;;5001640;28;20053;-71
2022/01/03 01:55:32;;;;;;;25.08;4.13;;;8.90;99.90;;;;;;5018592;28;20100;-72
2022/01/03 01:58:24;;;;;;;26.63;4.38;;;9.00;99.90;;;;;;5018810;28;20057;-71
2022/01/03 02:00:57;;;;;;;38.45;5.60;;;9.00;99.90;;;;;;5011664;28;20050;-71
2022/01/03 02:03:41;;;;;;;;;;;9.00;99.90;;;;;;5019300;28;20060;-71
2022/01/03 02:06:27;;;;;;;27.80;4.00;;;9.00;99.90;;;;;;5000347;28;20011;-71
2022/01/03 02:09:06;;;;;;;29.65;4.78;;;9.00;99.90;;;;;;5018371;28;20343;-72
2022/01/03 02:11:43;;;;;;;27.55;3.72;;;9.10;99.90;;;;;;5018669;28;20042;-73
2022/01/03 02:14:11;;;;;;;20.98;4.40;;;9.10;99.90;;;;;;5018427;28;20050;-73
2022/01/03 02:16:38;;;;;;;24.42;4.80;;;9.10;99.90;;;;;;5018148;28;20056;-72
2022/01/03 02:19:03;;;;;;;21.42;4.13;;;9.10;99.90;;;;;;5018042;28;20058;-72
2022/01/03 02:21:29;;;;;;;19.42;3.40;;;9.10;99.90;;;;;;5000568;28;20058;-72
2022/01/03 02:23:54;;;;;;;28.55;4.25;;;9.10;99.90;;;;;;5018015;28;20063;-72
2022/01/03 02:26:20;;;;;;;26.38;4.32;;;9.10;99.90;;;;;;5017558;28;20046;-73
2022/01/03 02:28:45;;;;;;;24.55;3.80;;;9.10;99.90;;;;;;5000773;28;20053;-72
2022/01/03 02:31:11;;;;;;;24.45;4.05;;;9.10;99.90;;;;;;5000549;28;20089;-71
2022/01/03 02:33:38;;;;;;;18.73;3.60;;;9.20;99.90;;;;;;5000576;28;20057;-72
2022/01/03 02:36:04;;;;;;;24.60;3.83;;;9.10;99.90;;;;;;5016342;28;20042;-70
2022/01/03 02:38:30;;;;;;;29.38;3.63;;;9.20;99.90;;;;;;5018147;28;20042;-72
2022/01/03 02:40:56;;;;;;;24.85;3.97;;;9.20;99.90;;;;;;5000614;28;20480;-71
2022/01/03 02:43:23;;;;;;;23.40;4.25;;;9.10;99.90;;;;;;5017529;28;20072;-71
2022/01/03 02:45:48;;;;;;;29.80;4.45;;;9.10;99.90;;;;;;5017706;28;20461;-73
2022/01/03 02:48:14;;;;;;;21.73;4.53;;;9.20;99.90;;;;;;5000200;28;20077;-71
2022/01/03 02:50:39;;;;;;;24.70;4.57;;;9.10;99.90;;;;;;5017963;28;20038;-71
2022/01/03 02:53:05;;;;;;;24.30;4.20;;;9.20;99.90;;;;;;5017426;28;20137;-73
2022/01/03 02:55:31;;;;;;;28.00;4.38;;;9.10;99.90;;;;;;5017824;28;20056;-72
2022/01/03 02:58:05;;;;;;;23.63;4.35;;;9.10;99.90;;;;;;5017538;28;20046;-72
2022/01/03 03:00:34;;;;;;;36.90;5.30;;;9.10;99.90;;;;;;5017158;28;20081;-72
2022/01/03 03:03:00;;;;;;;32.65;4.65;;;9.10;99.90;;;;;;5000700;28;20058;-72
2022/01/03 03:05:25;;;;;;;27.58;4.50;;;9.10;99.90;;;;;;4999703;28;20129;-71
2022/01/03 03:07:53;;;;;;;31.75;4.47;;;9.10;99.90;;;;;;5017139;28;20065;-72
2022/01/03 03:10:21;;;;;;;27.58;5.25;;;9.10;99.90;;;;;;5017321;28;20132;-75
2022/01/03 03:12:47;;;;;;;28.80;4.35;;;9.10;99.90;;;;;;5017081;28;20143;-71
2022/01/03 03:15:14;;;;;;;28.33;4.93;;;9.10;99.90;;;;;;5016756;28;20449;-71
2022/01/03 03:17:41;;;;;;;28.75;4.25;;;9.10;99.90;;;;;;5017300;28;20153;-72
2022/01/03 03:20:10;;;;;;;35.75;4.38;;;9.00;99.90;;;;;;4996805;28;20058;-71
2022/01/03 03:22:37;;;;;;;22.08;3.83;;;9.00;99.90;;;;;;4996617;28;20050;-72
2022/01/03 03:25:08;;;;;;;29.90;4.70;;;9.00;99.90;;;;;;4997363;28;20042;-71
2022/01/03 03:27:37;;;;;;;34.75;4.80;;;9.00;99.90;;;;;;4997217;28;20122;-72
2022/01/03 03:30:04;;;;;;;24.58;4.15;;;9.00;99.90;;;;;;4996585;28;20042;-73
2022/01/03 03:32:30;;;;;;;28.85;4.05;;;9.00;99.90;;;;;;4996179;28;20537;-74
2022/01/03 03:34:56;;;;;;;23.45;4.18;;;8.90;99.90;;;;;;4997292;28;20046;-71
2022/01/03 03:37:22;;;;;;;25.00;4.28;;;8.80;99.90;;;;;;5007015;28;20386;-72
2022/01/03 03:39:47;;;;;;;32.30;4.68;;;8.80;99.90;;;;;;4999552;28;20046;-73
2022/01/03 03:42:14;;;;;;;32.38;4.80;;;8.70;99.90;;;;;;4999383;28;20067;-72
2022/01/03 03:44:40;;;;;;;25.95;3.85;;;8.70;99.90;;;;;;5016370;28;20045;-71
2022/01/03 03:47:07;;;;;;;21.67;4.55;;;8.60;99.90;;;;;;5015953;28;20366;-72
2022/01/03 03:49:33;;;;;;;31.90;4.15;;;8.60;99.90;;;;;;4999520;28;20080;-70
2022/01/03 03:52:01;;;;;;;32.00;4.30;;;8.70;99.90;;;;;;5016625;28;20387;-71
2022/01/03 03:54:31;;;;;;;34.45;6.05;;;8.60;99.90;;;;;;5016585;28;20080;-70
2022/01/03 03:56:57;;;;;;;31.35;4.88;;;8.60;99.90;;;;;;5016511;28;20050;-72
2022/01/03 03:59:24;;;;;;;27.38;4.43;;;8.60;99.90;;;;;;5016581;28;20057;-71
2022/01/03 04:01:51;;;;;;;27.02;4.78;;;8.60;99.90;;;;;;5016223;28;20046;-72
2022/01/03 04:04:17;;;;;;;29.63;4.85;;;8.60;99.90;;;;;;5016210;28;20049;-71
2022/01/03 04:06:42;;;;;;;31.35;4.97;;;8.50;99.90;;;;;;4994381;28;20042;-72
2022/01/03 04:09:08;;;;;;;31.35;4.88;;;8.60;99.90;;;;;;4979112;28;20065;-74
2022/01/03 04:11:34;;;;;;;31.35;5.28;;;8.70;99.90;;;;;;4996928;28;20074;-71
2022/01/03 04:13:59;;;;;;;32.28;4.70;;;8.70;99.90;;;;;;4996746;28;20049;-70
2022/01/03 04:16:25;;;;;;;27.17;4.00;;;8.70;99.90;;;;;;4979017;28;20437;-73
2022/01/03 04:18:50;;;;;;;33.55;4.55;;;8.80;99.90;;;;;;4979311;28;20101;-72
2022/01/03 04:21:16;;;;;;;25.13;4.75;;;8.80;99.90;;;;;;4996435;28;20105;-72
2022/01/03 04:23:42;;;;;;;29.23;5.72;;;8.70;99.90;;;;;;4978778;28;20112;-71
2022/01/03 04:26:07;;;;;;;28.55;5.18;;;8.80;99.90;;;;;;4995687;28;20061;-71
2022/01/03 04:28:33;;;;;;;31.75;5.50;;;8.80;99.90;;;;;;4996760;28;20125;-71
2022/01/03 04:30:59;;;;;;;29.35;5.15;;;8.80;99.90;;;;;;4996153;28;20057;-72
2022/01/03 04:33:24;;;;;;;35.53;5.40;;;8.80;99.90;;;;;;4978882;28;20065;-73
2022/01/03 04:35:50;;;;;;;37.72;6.15;;;8.80;99.90;;;;;;4979405;28;20101;-73
2022/01/03 04:38:16;;;;;;;30.77;5.10;;;9.00;99.90;;;;;;4996042;28;20054;-71
2022/01/03 04:40:42;;;;;;;38.65;5.57;;;8.90;99.90;;;;;;4996153;28;20537;-72
2022/01/03 04:43:07;;;;;;;26.45;4.60;;;8.90;99.90;;;;;;4979109;28;20050;-72
2022/01/03 04:45:33;;;;;;;28.20;4.55;;;8.80;99.90;;;;;;4979653;28;20081;-72
2022/01/03 04:47:58;;;;;;;34.45;5.15;;;8.80;99.90;;;;;;4980191;28;20386;-71
2022/01/03 04:50:24;;;;;;;31.08;4.78;;;8.80;99.90;;;;;;4995916;28;20111;-71
2022/01/03 04:52:50;;;;;;;30.63;4.97;;;8.80;99.90;;;;;;4995859;28;20050;-72
2022/01/03 04:55:15;;;;;;;28.15;5.20;;;8.90;99.90;;;;;;4978394;28;20054;-74
2022/01/03 04:57:41;;;;;;;33.75;4.65;;;9.00;99.90;;;;;;4995721;28;20428;-71
2022/01/03 05:00:08;;;;;;;30.98;5.40;;;8.90;99.90;;;;;;4978968;28;20110;-72
2022/01/03 05:02:33;;;;;;;38.22;5.40;;;8.90;99.90;;;;;;4995673;28;20046;-71
2022/01/03 05:04:59;;;;;;;29.45;5.70;;;8.90;99.90;;;;;;4995621;28;20049;-72
2022/01/03 05:07:25;;;;;;;35.78;5.78;;;9.00;99.90;;;;;;5007021;28;20496;-73
2022/01/03 05:09:50;;;;;;;35.03;6.07;;;8.90;99.90;;;;;;4982090;28;20061;-71
2022/01/03 05:12:17;;;;;;;35.33;5.25;;;8.90;99.90;;;;;;4978092;28;20516;-72
2022/01/03 05:14:43;;;;;;;37.35;6.22;;;8.90;99.90;;;;;;4978604;28;20054;-73
2022/01/03 05:17:08;;;;;;;35.13;5.47;;;8.80;99.90;;;;;;4978101;28;20336;-71
2022/01/03 05:19:34;;;;;;;35.20;6.03;;;8.80;99.90;;;;;;4978458;28;20050;-71
2022/01/03 05:22:00;;;;;;;35.72;6.25;;;8.80;99.90;;;;;;4995045;28;20061;-71
2022/01/03 05:24:25;;;;;;;35.40;5.82;;;8.80;99.90;;;;;;4978254;28;20049;-71
2022/01/03 05:26:51;;;;;;;29.77;5.25;;;8.70;99.90;;;;;;4995548;28;20060;-71
2022/01/03 05:29:16;;;;;;;38.70;5.72;;;8.70;99.90;;;;;;4995361;28;20057;-71
2022/01/03 05:31:42;;;;;;;32.08;5.20;;;8.70;99.90;;;;;;4995390;28;20351;-72
2022/01/03 05:34:08;;;;;;;34.95;6.55;;;8.80;99.90;;;;;;4978544;28;20080;-70
2022/01/03 05:36:33;;;;;;;44.92;5.18;;;8.80;99.90;;;;;;4975904;28;20101;-71
2022/01/03 05:38:59;;;;;;;35.88;5.60;;;8.80;99.90;;;;;;4986200;28;20064;-71
2022/01/03 05:41:25;;;;;;;39.03;6.30;;;8.80;99.90;;;;;;5012735;28;20454;-70
2022/01/03 05:43:52;;;;;;;43.10;6.50;;;8.80;99.90;;;;;;4998250;28;20407;-71
2022/01/03 05:46:18;;;;;;;32.70;6.15;;;8.80;99.90;;;;;;4997648;28;20064;-71
2022/01/03 05:48:43;;;;;;;38.72;6.40;;;8.80;99.90;;;;;;5014949;28;20049;-70
2022/01/03 05:51:09;;;;;;;38.38;5.80;;;8.80;99.90;;;;;;4981222;28;20049;-70
2022/01/03 05:53:34;;;;;;;41.50;6.50;;;8.80;99.90;;;;;;4997240;28;20492;-71
2022/01/03 05:56:00;;;;;;;33.92;5.63;;;8.80;99.90;;;;;;4995420;28;20054;-71
2022/01/03 05:58:27;;;;;;;39.15;5.80;;;8.80;99.90;;;;;;4995146;28;20043;-70
2022/01/03 06:00:52;;;;;;;40.63;6.00;;;8.90;99.90;;;;;;4995313;28;20050;-74
2022/01/03 06:03:21;;;;;;;39.85;6.05;;;8.90;99.90;;;;;;4994320;28;20368;-71
2022/01/03 06:08:22;;;;;;;38.83;5.18;;;8.90;99.90;;;;;;4993962;28;20120;-72
2022/01/03 06:10:48;;;;;;;38.08;6.18;;;8.90;99.90;;;;;;4995580;28;20094;-70
2022/01/03 06:13:15;;;;;;;27.23;5.80;;;8.90;99.90;;;;;;4998896;28;20200;-72
2022/01/03 06:15:41;;;;;;;35.47;6.35;;;8.90;99.90;;;;;;4997808;28;20458;-70
2022/01/03 06:18:10;;;;;;;42.08;6.10;;;8.80;99.90;;;;;;4998638;28;20046;-72
2022/01/03 06:20:40;;;;;;;40.72;5.95;;;8.80;99.90;;;;;;5006986;28;20061;-72
2022/01/03 06:23:06;;;;;;;32.38;5.80;;;8.70;99.90;;;;;;5001393;28;20112;-71
2022/01/03 06:25:31;;;;;;;40.63;6.13;;;8.70;99.90;;;;;;5017933;28;20081;-71
2022/01/03 06:27:57;;;;;;;39.85;6.43;;;8.60;99.90;;;;;;5018218;28;20088;-72
2022/01/03 06:30:23;;;;;;;28.33;5.28;;;8.70;99.90;;;;;;4971833;28;20473;-71
2022/01/03 06:32:48;;;;;;;32.05;5.30;;;8.60;99.90;;;;;;4998524;28;20439;-72
2022/01/03 06:35:14;;;;;;;32.60;5.32;;;8.70;99.90;;;;;;4998215;28;20082;-71
2022/01/03 06:37:39;;;;;;;43.38;5.75;;;8.60;99.90;;;;;;4998561;28;20042;-70
2022/01/03 06:40:06;;;;;;;36.83;6.25;;;8.60;99.90;;;;;;4998275;28;20046;-72
2022/01/03 06:42:32;;;;;;;49.33;6.75;;;8.60;99.90;;;;;;4998369;28;20046;-71
2022/01/03 06:44:58;;;;;;;36.90;5.45;;;8.70;99.90;;;;;;4998201;28;20096;-73
2022/01/03 06:47:24;;;;;;;36.58;5.60;;;8.70;99.90;;;;;;4998268;28;20073;-70
2022/01/03 06:49:50;;;;;;;36.70;6.40;;;8.70;99.90;;;;;;4980978;28;20462;-72
2022/01/03 06:52:15;;;;;;;34.30;6.78;;;8.70;99.90;;;;;;4999180;28;20109;-70
2022/01/03 06:54:41;;;;;;;35.80;6.07;;;8.70;99.90;;;;;;5006723;28;20431;-68
2022/01/03 06:57:07;;;;;;;39.47;5.25;;;8.70;99.90;;;;;;5009952;28;20461;-69
2022/01/03 06:59:36;;;;;;;34.13;5.57;;;8.70;99.90;;;;;;4998809;28;20121;-71
2022/01/03 07:02:02;;;;;;;40.92;5.80;;;8.70;99.90;;;;;;4998279;28;20050;-69
2022/01/03 07:04:27;;;;;;;40.25;6.68;;;8.70;99.90;;;;;;4996430;28;20455;-68
2022/01/03 07:06:53;;;;;;;47.63;6.45;;;8.60;99.90;;;;;;5014892;28;20056;-69
2022/01/03 07:09:19;;;;;;;37.25;5.65;;;8.60;99.90;;;;;;5000249;28;20056;-67
2022/01/03 07:11:44;;;;;;;43.30;6.65;;;8.60;99.90;;;;;;5007063;28;20126;-69
2022/01/03 07:19:34;;;;;;;38.47;5.90;;;8.60;99.90;;;;;;5016064;28;20045;-71
2022/01/03 07:22:02;;;;;;;44.47;6.15;;;8.70;99.90;;;;;;4998987;28;20081;-69
2022/01/03 07:24:31;;;;;;;44.20;5.93;;;8.70;99.90;;;;;;5000018;28;20088;-70
2022/01/03 07:26:56;;;;;;;33.78;5.35;;;8.70;99.90;;;;;;4999839;28;20058;-69
2022/01/03 07:29:22;;;;;;;40.92;6.78;;;8.70;99.90;;;;;;5016820;28;20088;-68
2022/01/03 07:31:47;;;;;;;39.05;5.60;;;8.80;99.90;;;;;;4999075;28;20046;-69
2022/01/03 07:34:13;;;;;;;38.78;5.70;;;8.70;99.90;;;;;;5013079;28;20133;-68
2022/01/03 07:36:39;;;;;;;41.33;6.50;;;8.70;99.90;;;;;;5016648;28;20136;-68
2022/01/03 07:39:04;;;;;;;40.33;6.38;;;8.70;99.90;;;;;;5016252;28;20057;-69
2022/01/03 07:41:31;;;;;;;44.30;5.95;;;8.70;99.90;;;;;;5008011;28;20048;-70
2022/01/03 07:43:57;;;;;;;38.20;6.38;;;8.80;99.90;;;;;;4996788;28;20050;-70
2022/01/03 07:46:22;;;;;;;37.42;6.20;;;8.70;99.90;;;;;;4989479;28;20123;-70
2022/01/03 07:48:48;;;;;;;40.55;5.30;;;8.70;99.90;;;;;;5011238;28;20049;-68
2022/01/03 07:51:14;;;;;;;37.15;5.50;;;8.60;99.90;;;;;;5014826;28;20461;-70
2022/01/03 07:53:42;;;;;;;34.67;5.28;;;8.60;99.90;;;;;;5011950;28;20148;-70
2022/01/03 07:56:09;;;;;;;40.30;7.00;;;8.50;99.90;;;;;;5015920;28;20042;-67
2022/01/03 07:58:36;;;;;;;40.58;6.05;;;8.50;99.90;;;;;;4998549;28;20046;-70
2022/01/03 08:01:02;;;;;;;44.67;5.40;;;8.50;99.90;;;;;;5016305;28;20786;-69
2022/01/03 08:03:27;;;;;;;44.22;6.82;;;8.50;99.90;;;;;;4999336;28;20053;-69
2022/01/03 08:05:53;;;;;;;39.03;5.78;;;8.50;99.90;;;;;;5016407;28;20541;-69
2022/01/03 08:08:18;;;;;;;39.35;5.90;;;8.50;99.90;;;;;;4990991;28;20045;-69
2022/01/03 08:10:46;;;;;;;31.98;5.22;;;8.50;99.90;;;;;;4994898;28;20034;-68
2022/01/03 08:13:13;;;;;;;45.25;6.53;;;8.60;99.90;;;;;;4990790;28;20053;-68
2022/01/03 08:15:39;;;;;;;37.10;6.47;;;8.60;99.90;;;;;;5016248;28;20137;-71
2022/01/03 08:18:05;;;;;;;41.50;6.35;;;8.70;99.90;;;;;;5015834;28;20227;-69
2022/01/03 08:20:30;;;;;;;37.20;5.95;;;8.80;99.90;;;;;;4981727;28;20062;-68
2022/01/03 08:22:56;;;;;;;44.00;6.22;;;8.90;99.90;;;;;;5015400;28;20125;-68
2022/01/03 08:25:22;;;;;;;38.15;6.40;;;8.90;99.90;;;;;;4998199;28;20120;-68
2022/01/03 08:27:48;;;;;;;37.80;6.45;;;9.00;99.90;;;;;;4998172;28;20506;-70
2022/01/03 08:30:13;;;;;;;37.72;5.90;;;9.00;99.90;;;;;;5014454;28;20053;-71
2022/01/03 08:32:39;;;;;;;28.73;5.95;;;9.00;99.90;;;;;;4998268;28;20469;-68
2022/01/03 08:35:06;;;;;;;34.90;5.57;;;9.00;99.90;;;;;;5014693;28;20446;-69
2022/01/03 08:37:32;;;;;;;35.00;6.47;;;9.10;99.90;;;;;;5015763;28;20162;-68
2022/01/03 08:40:00;;;;;;;41.10;6.65;;;9.10;99.90;;;;;;5013969;28;20129;-70
2022/01/03 08:42:26;;;;;;;39.72;5.80;;;9.10;99.90;;;;;;5013198;28;20053;-70
2022/01/03 08:44:51;;;;;;;34.00;4.93;;;9.20;99.90;;;;;;5002052;28;20390;-70
2022/01/03 08:47:17;;;;;;;28.90;5.45;;;9.20;99.90;;;;;;4996649;28;20046;-68
2022/01/03 08:49:42;;;;;;;36.60;5.43;;;9.20;99.90;;;;;;4996867;28;20046;-68
2022/01/03 08:52:09;;;;;;;36.15;5.28;;;9.20;99.90;;;;;;5015330;28;20041;-68
2022/01/03 08:54:35;;;;;;;36.28;5.53;;;9.20;99.90;;;;;;5015002;28;20049;-68
2022/01/03 08:57:01;;;;;;;36.03;5.95;;;9.20;99.90;;;;;;5013085;28;20045;-68
2022/01/03 08:59:26;;;;;;;27.40;5.35;;;9.30;99.90;;;;;;5014912;28;20050;-67
2022/01/03 09:01:52;;;;;;;32.80;5.80;;;9.30;99.90;;;;;;5015477;28;20088;-68
2022/01/03 09:04:17;;;;;;;33.28;5.45;;;9.30;99.90;;;;;;5015177;28;20046;-68
2022/01/03 09:06:43;;;;;;;39.63;6.75;;;9.30;99.90;;;;;;5015326;28;20426;-67
2022/01/03 09:09:09;;;;;;;32.33;5.88;;;9.40;99.90;;;;;;5014666;28;20395;-69
2022/01/03 09:11:35;;;;;;;29.00;5.35;;;9.40;99.90;;;;;;5015261;28;20085;-70
2022/01/03 09:14:01;;;;;;;36.22;5.38;;;9.40;99.90;;;;;;5031489;28;20092;-69
2022/01/03 09:16:27;;;;;;;31.45;6.43;;;9.40;99.90;;;;;;5015026;28;20438;-69
2022/01/03 09:18:52;;;;;;;32.30;5.85;;;9.50;99.90;;;;;;5030505;28;20052;-70
2022/01/03 09:21:19;;;;;;;31.60;4.93;;;9.50;99.90;;;;;;5008227;28;20053;-69
2022/01/03 09:23:49;;;;;;;31.58;5.55;;;9.50;99.90;;;;;;4993916;28;20488;-69
2022/01/03 09:28:59;;;;;;;33.42;6.05;;;9.50;99.90;;;;;;5014518;28;20046;-70
2022/01/03 09:31:42;;;;;;;35.05;5.60;;;9.50;99.90;;;;;;5013092;28;20050;-69
2022/01/03 09:34:09;;;;;;;27.85;4.70;;;9.50;99.90;;;;;;5015086;28;20046;-68
2022/01/03 09:36:35;;;;;;;30.25;4.63;;;9.50;99.90;;;;;;4997718;28;20049;-70
2022/01/03 09:39:02;;;;;;;36.95;5.93;;;9.50;99.90;;;;;;5015168;28;20053;-69
2022/01/03 09:41:29;;;;;;;34.33;5.10;;;9.50;99.90;;;;;;5013872;28;20134;-69
2022/01/03 09:43:59;;;;;;;38.00;5.85;;;9.50;99.90;;;;;;5014383;28;20116;-71
2022/01/03 09:46:27;;;;;;;32.75;5.53;;;9.50;99.90;;;;;;5016681;28;20050;-69
2022/01/03 09:48:55;;;;;;;31.25;5.40;;;9.60;99.90;;;;;;5017177;28;20099;-70
2022/01/03 09:51:23;;;;;;;27.08;5.00;;;9.60;99.90;;;;;;5005151;28;20045;-69
2022/01/03 09:53:51;;;;;;;31.55;6.20;;;9.70;99.90;;;;;;4998408;28;20463;-71
2022/01/03 09:56:17;;;;;;;30.23;5.40;;;9.70;99.90;;;;;;4998156;28;20476;-71
2022/01/03 09:58:43;;;;;;;29.42;5.60;;;9.80;99.90;;;;;;5001419;28;20042;-70
2022/01/03 10:01:10;;;;;;;31.58;5.90;;;9.80;99.90;;;;;;5001160;28;20046;-69
2022/01/03 10:03:36;;;;;;;31.70;5.53;;;9.80;99.90;;;;;;5001291;28;20045;-70
2022/01/03 10:06:01;;;;;;;28.70;4.97;;;9.80;99.90;;;;;;5000477;28;20053;-69
2022/01/03 10:08:27;;;;;;;28.55;4.72;;;9.80;99.90;;;;;;5017625;28;20347;-69
2022/01/03 10:10:53;;;;;;;27.35;4.53;;;9.80;99.90;;;;;;5000922;28;20042;-71
2022/01/03 10:13:20;;;;;;;34.40;5.72;;;9.80;99.90;;;;;;5018483;28;20073;-69
2022/01/03 10:15:47;;;;;;;35.70;5.00;;;9.80;99.90;;;;;;5001222;28;20045;-68
2022/01/03 10:18:17;;;;;;;29.73;5.05;;;9.80;99.90;;;;;;5017766;28;20034;-71
2022/01/03 10:20:43;;;;;;;31.63;5.45;;;9.80;99.90;;;;;;5017941;28;20054;-68
2022/01/03 10:23:14;;;;;;;39.58;7.10;;;9.80;99.90;;;;;;5018605;28;20046;-69
2022/01/03 10:25:40;;;;;;;30.35;5.03;;;9.80;99.90;;;;;;5017711;28;20046;-68
2022/01/03 10:28:06;;;;;;;38.67;6.45;;;9.80;99.90;;;;;;5000355;28;20120;-69
2022/01/03 10:30:38;;;;;;;29.48;5.45;;;9.80;99.90;;;;;;5017949;28;20037;-68
2022/01/03 10:33:06;;;;;;;33.15;5.57;;;9.80;99.90;;;;;;5017935;28;20137;-68
2022/01/03 10:35:38;;;;;;;35.33;6.00;;;9.80;99.90;;;;;;5000132;28;20065;-68
2022/01/03 10:38:03;;;;;;;36.17;5.97;;;9.80;99.90;;;;;;4991462;28;20047;-71
2022/01/03 10:40:29;;;;;;;28.67;5.05;;;9.90;99.90;;;;;;4981162;28;20112;-69
2022/01/03 10:42:58;;;;;;;35.95;5.20;;;9.90;99.90;;;;;;4981377;28;20059;-71
2022/01/03 10:45:33;;;;;;;42.97;5.53;;;9.90;99.90;;;;;;4980693;28;20153;-68
2022/01/03 10:48:00;;;;;;;28.25;5.65;;;9.90;99.90;;;;;;4997710;28;20370;-70
2022/01/03 10:50:26;;;;;;;20.25;4.93;;;9.90;99.90;;;;;;4980023;28;20116;-70
2022/01/03 10:52:53;;;;;;;32.53;4.95;;;9.80;99.90;;;;;;4997496;28;20056;-69
2022/01/03 10:55:33;;;;;;;37.60;6.20;;;9.80;99.90;;;;;;4984535;28;20142;-70
2022/01/03 10:58:06;;;;;;;33.42;5.35;;;9.90;99.90;;;;;;5010762;28;20054;-70
2022/01/03 11:00:36;;;;;;;33.70;6.10;;;10.00;99.90;;;;;;5017046;28;20045;-70
2022/01/03 11:03:29;;;;;;;29.73;5.97;;;10.10;99.90;;;;;;5017747;28;20064;-70
2022/01/03 11:06:08;;;;;;;30.70;5.80;;;10.10;99.90;;;;;;4964864;28;20470;-68
2022/01/03 11:11:36;;;;;;;42.92;7.88;;;10.20;99.90;;;;;;5015040;28;20450;-69
2022/01/03 11:14:02;;;;;;;31.85;5.72;;;10.30;99.90;;;;;;4995316;28;20104;-69
2022/01/03 11:16:36;;;;;;;29.05;5.45;;;10.40;99.90;;;;;;4997063;28;20046;-67
2022/01/03 11:19:02;;;;;;;34.70;6.00;;;10.40;99.90;;;;;;4997388;28;20212;-68
2022/01/03 11:21:30;;;;;;;34.95;5.53;;;10.40;99.90;;;;;;4996972;28;20058;-68
2022/01/03 11:24:11;;;;;;;37.85;5.30;;;10.60;99.90;;;;;;4989193;28;20061;-68
2022/01/03 11:26:48;;;;;;;32.92;5.53;;;10.50;99.90;;;;;;4954451;29;20382;-70
2022/01/03 11:29:15;;;;;;;28.92;5.72;;;10.50;99.90;;;;;;4984397;28;20065;-69
2022/01/03 11:31:41;;;;;;;34.10;5.47;;;10.50;99.90;;;;;;4944353;28;20065;-69
2022/01/03 11:34:10;;;;;;;35.03;6.18;;;10.50;99.90;;;;;;4977643;28;20050;-68
2022/01/03 11:36:38;;;;;;;28.38;5.70;;;10.50;99.90;;;;;;4963487;28;20082;-70
2022/01/03 11:39:09;;;;;;;26.35;4.80;;;10.60;99.90;;;;;;4997156;28;20058;-68
2022/01/03 11:41:40;;;;;;;26.52;5.15;;;10.60;99.90;;;;;;4972349;28;20042;-68
2022/01/03 11:44:07;;;;;;;28.02;5.03;;;10.60;99.90;;;;;;4977214;28;20251;-70
2022/01/03 11:46:33;;;;;;;29.88;4.90;;;10.60;99.90;;;;;;4988791;28;20470;-68
2022/01/03 11:48:59;;;;;;;31.38;5.03;;;10.60;99.90;;;;;;4964702;28;20046;-68
2022/01/03 11:51:30;;;;;;;27.08;5.30;;;10.70;99.90;;;;;;4996339;28;20530;-68
2022/01/03 11:53:57;;;;;;;28.15;4.47;;;10.70;99.90;;;;;;4997358;28;20100;-68
2022/01/03 11:56:25;;;;;;;23.58;4.00;;;10.70;99.90;;;;;;4981857;28;20419;-68
2022/01/03 12:04:28;;;;;;;23.15;4.50;;;10.70;99.90;;;;;;4984963;28;20312;-68
2022/01/03 12:07:13;;;;;;;26.75;4.82;;;10.80;99.90;;;;;;4959846;28;20086;-68
2022/01/03 12:09:50;;;;;;;29.10;5.07;;;10.80;99.90;;;;;;4982328;28;20045;-71
2022/01/03 12:12:37;;;;;;;27.50;4.22;;;10.80;99.90;;;;;;4996239;28;20439;-70
2022/01/03 12:15:06;;;;;;;32.80;5.60;;;10.80;99.90;;;;;;4979299;28;20050;-69
2022/01/03 12:17:47;;;;;;;31.75;5.07;;;10.80;99.90;;;;;;4996159;28;20042;-71
2022/01/03 12:20:13;;;;;;;29.27;4.88;;;10.70;99.90;;;;;;4982756;28;20112;-71
2022/01/03 12:22:53;;;;;;;33.38;4.85;;;10.70;99.90;;;;;;5003032;28;20462;-68
2022/01/03 12:25:31;;;;;;;27.27;4.65;;;10.70;99.90;;;;;;4988737;28;20108;-69
2022/01/03 12:28:03;;;;;;;25.10;5.28;;;10.80;99.90;;;;;;4988969;28;20148;-69
2022/01/03 12:30:37;;;;;;;19.77;3.83;;;10.80;99.90;;;;;;4992777;28;20078;-71
2022/01/03 12:33:08;;;;;;;26.60;4.95;;;10.90;99.90;;;;;;4994830;28;20059;-69
2022/01/03 12:35:44;;;;;;;29.60;5.22;;;11.00;99.90;;;;;;4995991;28;20133;-70
2022/01/03 12:38:13;;;;;;;26.02;4.70;;;11.10;99.90;;;;;;5002746;28;20339;-70
2022/01/03 12:40:56;;;;;;;29.90;4.95;;;11.20;99.90;;;;;;5014690;28;20370;-69
2022/01/03 12:43:42;;;;;;;28.85;5.22;;;11.20;99.90;;;;;;5015219;28;20061;-68
2022/01/03 12:46:17;;;;;;;26.40;4.90;;;11.20;99.90;;;;;;4998104;28;20155;-67
2022/01/03 12:48:42;;;;;;;23.75;4.97;;;11.10;99.90;;;;;;5012889;28;20091;-73
2022/01/03 12:51:12;;;;;;;24.40;4.47;;;11.00;99.90;;;;;;4977718;28;20054;-69
2022/01/03 12:53:40;;;;;;;30.98;5.25;;;11.00;99.90;;;;;;4975794;28;20085;-70
2022/01/03 12:56:15;;;;;;;35.97;5.47;;;10.80;99.90;;;;;;4994484;28;20089;-70
2022/01/03 12:58:50;;;;;;;30.38;4.95;;;10.80;99.90;;;;;;4995363;28;20058;-69
2022/01/03 13:01:19;;;;;;;27.25;4.95;;;10.80;99.90;;;;;;4967688;28;20154;-72
2022/01/03 13:03:50;;;;;;;26.52;4.88;;;10.90;99.90;;;;;;4992025;28;20046;-71
2022/01/03 13:06:29;;;;;;;25.88;5.32;;;10.80;99.90;;;;;;4986859;28;20054;-70
2022/01/03 13:08:54;;;;;;;30.27;5.75;;;10.80;99.90;;;;;;4994839;28;20042;-70
2022/01/03 13:11:21;;;;;;;24.48;4.85;;;10.90;99.90;;;;;;4995059;28;20200;-71